Observation data for Friona on 04/24/2019      Previous  Date  Next       Current Mesonet Observations  Soil Data  Daily Summary Page  Observations in Plain Language
KFAS 240500Z 01005KT 05/05 A3009 RMK A01 T00540046  RH  096%=      5-min Rain = 0
KFAS 240505Z 01005KT 06/05 A3009 RMK A01 T00550046  RH  096%=      5-min Rain = 0
KFAS 240510Z 00005KT 05/04 A3008 RMK A01 T00530043  RH  096%=      5-min Rain = 0
KFAS 240515Z 35004KT 05/04 A3008 RMK A01 T00490040  RH  096%=      5-min Rain = 0
KFAS 240520Z 35005KT 05/04 A3008 RMK A01 T00480040  RH  096%=      5-min Rain = 0
KFAS 240525Z 00004KT 05/04 A3008 RMK A01 T00490040  RH  096%=      5-min Rain = 0
KFAS 240530Z 02004KT 05/04 A3009 RMK A01 T00500043  RH  097%=      5-min Rain = 0
KFAS 240535Z 02005KT 05/05 A3009 RMK A01 T00530046  RH  097%=      5-min Rain = 0
KFAS 240540Z 02005KT 05/05 A3009 RMK A01 T00540046  RH  097%=      5-min Rain = 0
KFAS 240545Z 04006KT 05/05 A3009 RMK A01 T00540047  RH  097%=      5-min Rain = 0
KFAS 240550Z 04007KT 06/05 A3009 RMK A01 T00550047  RH  097%=      5-min Rain = 0
KFAS 240555Z 04007KT 06/05 A3009 RMK A01 T00550047  RH  097%=      5-min Rain = 0
KFAS 240600Z 05007KT 06/05 A3008 RMK A01 T00550047  RH  096%=      5-min Rain = 0
KFAS 240605Z 04008KT 05/05 A3008 RMK A01 T00540045  RH  096%=      5-min Rain = 0
KFAS 240610Z 04007KT 05/04 A3008 RMK A01 T00520043  RH  096%=      5-min Rain = 0
KFAS 240615Z 05008KT 05/04 A3007 RMK A01 T00510042  RH  096%=      5-min Rain = 0
KFAS 240620Z 04008KT 05/04 A3007 RMK A01 T00510041  RH  095%=      5-min Rain = 0
KFAS 240625Z 04007KT 05/04 A3007 RMK A01 T00500040  RH  095%=      5-min Rain = 0
KFAS 240630Z 05007KT 05/04 A3007 RMK A01 T00490039  RH  095%=      5-min Rain = 0
KFAS 240635Z 05007KT 05/04 A3006 RMK A01 T00490038  RH  095%=      5-min Rain = 0
KFAS 240640Z 05007KT 05/04 A3006 RMK A01 T00490038  RH  095%=      5-min Rain = 0
KFAS 240645Z 06006KT 05/04 A3006 RMK A01 T00480037  RH  094%=      5-min Rain = 0
KFAS 240650Z 06005KT 05/04 A3006 RMK A01 T00460035  RH  094%=      5-min Rain = 0
KFAS 240655Z 04003KT 05/03 A3005 RMK A01 T00450034  RH  094%=      5-min Rain = 0
KFAS 240700Z 02003KT 04/03 A3005 RMK A01 T00430032  RH  094%=      5-min Rain = 0
KFAS 240705Z 36003KT 04/03 A3005 RMK A01 T00400029  RH  094%=      5-min Rain = 0
KFAS 240710Z 00006KT 04/03 A3005 RMK A01 T00380027  RH  094%=      5-min Rain = 0
KFAS 240715Z 00006KT 03/02 A3005 RMK A01 T00330023  RH  094%=      5-min Rain = 0
KFAS 240720Z 36006KT 03/02 A3004 RMK A01 T00310022  RH  095%=      5-min Rain = 0
KFAS 240725Z 01004KT 03/03 A3004 RMK A01 T00340027  RH  096%=      5-min Rain = 0
KFAS 240730Z 01003KT 04/03 A3004 RMK A01 T00360028  RH  096%=      5-min Rain = 0
KFAS 240735Z 02004KT 04/03 A3004 RMK A01 T00380030  RH  096%=      5-min Rain = 0
KFAS 240740Z 01004KT 04/03 A3003 RMK A01 T00390032  RH  096%=      5-min Rain = 0
KFAS 240745Z 36004KT 04/03 A3003 RMK A01 T00390031  RH  096%=      5-min Rain = 0
KFAS 240750Z 35003KT 04/03 A3003 RMK A01 T00400032  RH  096%=      5-min Rain = 0
KFAS 240755Z 36003KT 04/03 A3003 RMK A01 T00400032  RH  096%=      5-min Rain = 0
KFAS 240800Z 34003KT 04/03 A3003 RMK A01 T00400032  RH  096%=      5-min Rain = 0
KFAS 240805Z 32004KT 04/03 A3003 RMK A01 T00360027  RH  095%=      5-min Rain = 0
KFAS 240810Z 32004KT 04/03 A3002 RMK A01 T00350026  RH  096%=      5-min Rain = 0
KFAS 240815Z 32006KT 03/02 A3002 RMK A01 T00320023  RH  096%=      5-min Rain = 0
KFAS 240820Z 32005KT 03/02 A3002 RMK A01 T00270019  RH  096%=      5-min Rain = 0
KFAS 240825Z 31005KT 03/02 A3002 RMK A01 T00250017  RH  096%=      5-min Rain = 0
KFAS 240830Z 32006KT 03/02 A3001 RMK A01 T00250018  RH  097%=      5-min Rain = 0
KFAS 240835Z 32005KT 02/02 A3001 RMK A01 T00240017  RH  097%=      5-min Rain = 0
KFAS 240840Z 34002KT 03/02 A3002 RMK A01 T00260019  RH  097%=      5-min Rain = 0
KFAS 240845Z 01002KT 03/02 A3002 RMK A01 T00280022  RH  097%=      5-min Rain = 0
KFAS 240850Z 11002KT 03/02 A3002 RMK A01 T00250019  RH  097%=      5-min Rain = 0
KFAS 240855Z 10002KT 02/02 A3002 RMK A01 T00220016  RH  097%=      5-min Rain = 0
KFAS 240900Z 12002KT 02/02 A3002 RMK A01 T00240018  RH  097%=      5-min Rain = 0
KFAS 240905Z 12001KT 02/02 A3002 RMK A01 T00240019  RH  097%=      5-min Rain = 0
KFAS 240910Z 11000KT 03/02 A3002 RMK A01 T00250019  RH  098%=      5-min Rain = 0
KFAS 240915Z 24002KT 03/02 A3002 RMK A01 T00250020  RH  098%=      5-min Rain = 0
KFAS 240920Z 25004KT 02/01 A3002 RMK A01 T00190013  RH  097%=      5-min Rain = 0
KFAS 240925Z 25005KT 02/02 A3001 RMK A01 T00220016  RH  098%=      5-min Rain = 0
KFAS 240930Z 26005KT 03/02 A3001 RMK A01 T00250020  RH  098%=      5-min Rain = 0
KFAS 240935Z 27006KT 03/02 A3001 RMK A01 T00270022  RH  098%=      5-min Rain = 0
KFAS 240940Z 27005KT 03/02 A3001 RMK A01 T00270022  RH  098%=      5-min Rain = 0
KFAS 240945Z 23005KT 02/02 A3002 RMK A01 T00240018  RH  098%=      5-min Rain = 0
KFAS 240950Z 24006KT 02/01 A3002 RMK A01 T00200014  RH  097%=      5-min Rain = 0
KFAS 240955Z 25005KT 02/01 A3002 RMK A01 T00190014  RH  098%=      5-min Rain = 0
KFAS 241000Z 26006KT 02/02 A3003 RMK A01 T00220017  RH  098%=      5-min Rain = 0
KFAS 241005Z 25007KT 02/02 A3003 RMK A01 T00240020  RH  098%=      5-min Rain = 0
KFAS 241010Z 25007KT 02/02 A3003 RMK A01 T00240020  RH  098%=      5-min Rain = 0
KFAS 241015Z 26007KT 03/02 A3002 RMK A01 T00260021  RH  098%=      5-min Rain = 0
KFAS 241020Z 26009KT 03/02 A3002 RMK A01 T00280023  RH  098%=      5-min Rain = 0
KFAS 241025Z 26008KT 03/02 A3002 RMK A01 T00270023  RH  098%=      5-min Rain = 0
KFAS 241030Z 27007KT 03/02 A3002 RMK A01 T00270022  RH  098%=      5-min Rain = 0
KFAS 241035Z 26006KT 03/02 A3002 RMK A01 T00260021  RH  098%=      5-min Rain = 0
KFAS 241040Z 26005KT 03/02 A3002 RMK A01 T00250020  RH  098%=      5-min Rain = 0
KFAS 241045Z 26006KT 02/02 A3002 RMK A01 T00240018  RH  098%=      5-min Rain = 0
KFAS 241050Z 26006KT 02/02 A3002 RMK A01 T00230018  RH  098%=      5-min Rain = 0
KFAS 241055Z 27004KT 02/02 A3002 RMK A01 T00220017  RH  098%=      5-min Rain = 0
KFAS 241100Z 23004KT 02/02 A3002 RMK A01 T00200015  RH  098%=      5-min Rain = 0
KFAS 241105Z 24004KT 02/01 A3002 RMK A01 T00180013  RH  098%=      5-min Rain = 0
KFAS 241110Z 25004KT 02/01 A3002 RMK A01 T00180013  RH  098%=      5-min Rain = 0
KFAS 241115Z 24003KT 02/01 A3002 RMK A01 T00180013  RH  098%=      5-min Rain = 0
KFAS 241120Z 22003KT 02/01 A3002 RMK A01 T00160011  RH  098%=      5-min Rain = 0
KFAS 241125Z 23003KT 02/01 A3002 RMK A01 T00170012  RH  098%=      5-min Rain = 0
KFAS 241130Z 23002KT 02/01 A3002 RMK A01 T00180014  RH  098%=      5-min Rain = 0
KFAS 241135Z 22001KT 02/01 A3002 RMK A01 T00180013  RH  098%=      5-min Rain = 0
KFAS 241140Z 22002KT 02/01 A3002 RMK A01 T00180014  RH  098%=      5-min Rain = 0
KFAS 241145Z 24003KT 01/01 A3001 RMK A01 T00140010  RH  098%=      5-min Rain = 0
KFAS 241150Z 24004KT 01/01 A3001 RMK A01 T00120007  RH  098%=      5-min Rain = 0
KFAS 241155Z 24005KT 01/01 A3001 RMK A01 T00120008  RH  098%=      5-min Rain = 0
KFAS 241200Z 25005KT 01/01 A3001 RMK A01 T00100006  RH  098%=      5-min Rain = 0
KFAS 241205Z 26005KT 01/01 A3001 RMK A01 T00130009  RH  099%=      5-min Rain = 0
KFAS 241210Z 26007KT 02/02 A3001 RMK A01 T00190015  RH  099%=      5-min Rain = 0
KFAS 241215Z 26007KT 02/02 A3001 RMK A01 T00200017  RH  099%=      5-min Rain = 0
KFAS 241220Z 26006KT 02/02 A3001 RMK A01 T00190015  RH  099%=      5-min Rain = 0
KFAS 241225Z 26007KT 02/01 A3001 RMK A01 T00190014  RH  099%=      5-min Rain = 0
KFAS 241230Z 26006KT 02/01 A3001 RMK A01 T00190014  RH  098%=      5-min Rain = 0
KFAS 241235Z 27005KT 02/02 A3002 RMK A01 T00190015  RH  098%=      5-min Rain = 0
KFAS 241240Z 28005KT 02/02 A3002 RMK A01 T00200016  RH  098%=      5-min Rain = 0
KFAS 241245Z 28004KT 02/02 A3002 RMK A01 T00220018  RH  098%=      5-min Rain = 0
KFAS 241250Z 28004KT 03/02 A3002 RMK A01 T00250020  RH  098%=      5-min Rain = 0
KFAS 241255Z 28004KT 03/02 A3002 RMK A01 T00270022  RH  098%=      5-min Rain = 0
KFAS 241300Z 27003KT 03/03 A3003 RMK A01 T00300025  RH  098%=      5-min Rain = 0
KFAS 241305Z 25002KT 03/03 A3003 RMK A01 T00330028  RH  098%=      5-min Rain = 0
KFAS 241310Z 24003KT 04/03 A3003 RMK A01 T00360031  RH  098%=      5-min Rain = 0
KFAS 241315Z 24003KT 04/03 A3003 RMK A01 T00390033  RH  098%=      5-min Rain = 0
KFAS 241320Z 26003KT 04/03 A3004 RMK A01 T00410034  RH  097%=      5-min Rain = 0
KFAS 241325Z 26003KT 05/04 A3004 RMK A01 T00450038  RH  097%=      5-min Rain = 0
KFAS 241330Z 25004KT 05/04 A3004 RMK A01 T00480041  RH  097%=      5-min Rain = 0
KFAS 241335Z 26004KT 05/04 A3004 RMK A01 T00520044  RH  097%=      5-min Rain = 0
KFAS 241340Z 27005KT 06/05 A3004 RMK A01 T00560048  RH  096%=      5-min Rain = 0
KFAS 241345Z 28006KT 06/05 A3004 RMK A01 T00600051  RH  096%=      5-min Rain = 0
KFAS 241350Z 27006KT 06/05 A3004 RMK A01 T00640054  RH  095%=      5-min Rain = 0
KFAS 241355Z 26005KT 07/06 A3004 RMK A01 T00680057  RH  095%=      5-min Rain = 0
KFAS 241400Z 26006KT 07/06 A3004 RMK A01 T00730061  RH  095%=      5-min Rain = 0
KFAS 241405Z 26006KT 08/07 A3004 RMK A01 T00780066  RH  094%=      5-min Rain = 0
KFAS 241410Z 26006KT 08/07 A3004 RMK A01 T00800066  RH  093%=      5-min Rain = 0
KFAS 241415Z 26007KT 08/07 A3004 RMK A01 T00830067  RH  092%=      5-min Rain = 0
KFAS 241420Z 26007KT 09/07 A3004 RMK A01 T00860068  RH  091%=      5-min Rain = 0
KFAS 241425Z 25007KT 09/07 A3003 RMK A01 T00880069  RH  090%=      5-min Rain = 0
KFAS 241430Z 26007KT 09/07 A3003 RMK A01 T00920071  RH  089%=      5-min Rain = 0
KFAS 241435Z 26008KT 10/07 A3003 RMK A01 T00950071  RH  088%=      5-min Rain = 0
KFAS 241440Z 26007KT 10/07 A3003 RMK A01 T00970073  RH  087%=      5-min Rain = 0
KFAS 241445Z 26008KT 10/07 A3003 RMK A01 T01010074  RH  085%=      5-min Rain = 0
KFAS 241450Z 27008KT 11/08 A3003 RMK A01 T01080076  RH  083%=      5-min Rain = 0
KFAS 241455Z 27008KT 11/08 A3003 RMK A01 T01120075  RH  080%=      5-min Rain = 0
KFAS 241500Z 27008KT 12/08 A3003 RMK A01 T01160076  RH  079%=      5-min Rain = 0
KFAS 241505Z 26008KT 12/08 A3002 RMK A01 T01190077  RH  078%=      5-min Rain = 0
KFAS 241510Z 27008KT 12/08 A3002 RMK A01 T01240077  RH  075%=      5-min Rain = 0
KFAS 241515Z 27008KT 12/08 A3002 RMK A01 T01240075  RH  074%=      5-min Rain = 0
KFAS 241520Z 27009KT 13/08 A3001 RMK A01 T01270075  RH  072%=      5-min Rain = 0
KFAS 241525Z 28010KT 13/07 A3001 RMK A01 T01300074  RH  071%=      5-min Rain = 0
KFAS 241530Z 27009KT 14/08 A30 RMK A01 T01350078  RH  070%=      5-min Rain = 0
KFAS 241535Z 28010KT 14/08 A30 RMK A01 T01370077  RH  069%=      5-min Rain = 0
KFAS 241540Z 27009KT 14/08 A30 RMK A01 T01380081  RH  070%=      5-min Rain = 0
KFAS 241545Z 27009KT 14/08 A30 RMK A01 T01400076  RH  067%=      5-min Rain = 0
KFAS 241550Z 25007KT 14/08 A3001 RMK A01 T01410076  RH  066%=      5-min Rain = 0
KFAS 241555Z 29006KT 14/07 A3001 RMK A01 T01420072  RH  064%=      5-min Rain = 0
KFAS 241600Z 28006KT 14/07 A3001 RMK A01 T01430069  RH  063%=      5-min Rain = 0
KFAS 241605Z 28006KT 15/08 A3001 RMK A01 T01480075  RH  063%=      5-min Rain = 0
KFAS 241610Z 27006KT 15/08 A3001 RMK A01 T01500075  RH  062%=      5-min Rain = 0
KFAS 241615Z 27005G10KT 15/08 A3001 RMK A01 T01520076  RH  062%=      5-min Rain = 0
KFAS 241620Z 29007KT 15/07 A3002 RMK A01 T01530073  RH  061%=      5-min Rain = 0
KFAS 241625Z 27005KT 15/07 A3002 RMK A01 T01510070  RH  060%=      5-min Rain = 0
KFAS 241630Z 25004G9KT 15/07 A3002 RMK A01 T01490073  RH  062%=      5-min Rain = 0
KFAS 241635Z 29006KT 16/07 A3001 RMK A01 T01550074  RH  060%=      5-min Rain = 0
KFAS 241640Z 27005KT 16/07 A3001 RMK A01 T01560071  RH  058%=      5-min Rain = 0
KFAS 241645Z 27006KT 16/07 A3001 RMK A01 T01600074  RH  058%=      5-min Rain = 0
KFAS 241650Z 25004KT 16/07 A3001 RMK A01 T01590070  RH  057%=      5-min Rain = 0
KFAS 241655Z 26005KT 16/07 A3001 RMK A01 T01560074  RH  059%=      5-min Rain = 0
KFAS 241700Z 32003KT 15/07 A3002 RMK A01 T01540069  RH  058%=      5-min Rain = 0
KFAS 241705Z 33004KT 15/07 A3002 RMK A01 T01510070  RH  060%=      5-min Rain = 0
KFAS 241710Z 27005KT 15/07 A3001 RMK A01 T01510069  RH  059%=      5-min Rain = 0
KFAS 241715Z 24004KT 15/07 A3001 RMK A01 T01520069  RH  059%=      5-min Rain = 0
KFAS 241720Z 27002KT 16/07 A3002 RMK A01 T01580070  RH  057%=      5-min Rain = 0
KFAS 241725Z 25003KT 16/07 A3001 RMK A01 T01620074  RH  058%=      5-min Rain = 0
KFAS 241730Z 32003KT 16/07 A3001 RMK A01 T01590070  RH  057%=      5-min Rain = 0
KFAS 241735Z 19001KT 16/07 A3001 RMK A01 T01590072  RH  058%=      5-min Rain = 0
KFAS 241740Z 26004KT 16/07 A30 RMK A01 T01590073  RH  058%=      5-min Rain = 0
KFAS 241745Z 26005KT 16/07 A30 RMK A01 T01590074  RH  058%=      5-min Rain = 0
KFAS 241750Z 28003KT 16/07 A30 RMK A01 T01600073  RH  057%=      5-min Rain = 0
KFAS 241755Z 24003KT 16/08 A30 RMK A01 T01630075  RH  057%=      5-min Rain = 0
KFAS 241800Z 28003KT 17/07 A30 RMK A01 T01680074  RH  055%=      5-min Rain = 0
KFAS 241805Z 24005KT 17/08 A30 RMK A01 T01680075  RH  056%=      5-min Rain = 0
KFAS 241810Z 28005KT 16/07 A30 RMK A01 T01640069  RH  055%=      5-min Rain = 0
KFAS 241815Z 23005KT 16/07 A2999 RMK A01 T01620070  RH  056%=      5-min Rain = 0
KFAS 241820Z 21003KT 16/08 A2999 RMK A01 T01630075  RH  057%=      5-min Rain = 0
KFAS 241825Z 27006G11KT 17/08 A2999 RMK A01 T01670078  RH  057%=      5-min Rain = 0
KFAS 241830Z 28006KT 17/07 A2999 RMK A01 T01660071  RH  055%=      5-min Rain = 0
KFAS 241835Z 28004KT 16/07 A2999 RMK A01 T01630071  RH  056%=      5-min Rain = 0
KFAS 241840Z 22005KT 17/07 A2998 RMK A01 T01680073  RH  055%=      5-min Rain = 0
KFAS 241845Z 21004KT 17/07 A2998 RMK A01 T01700072  RH  054%=      5-min Rain = 0
KFAS 241850Z 28003KT 17/07 A2998 RMK A01 T01680072  RH  054%=      5-min Rain = 0
KFAS 241855Z 27004KT 17/07 A2998 RMK A01 T01680072  RH  054%=      5-min Rain = 0
KFAS 241900Z 28004KT 17/07 A2998 RMK A01 T01680070  RH  054%=      5-min Rain = 0
KFAS 241905Z 24005KT 17/08 A2998 RMK A01 T01710075  RH  054%=      5-min Rain = 0
KFAS 241910Z 22003KT 18/07 A2998 RMK A01 T01760074  RH  052%=      5-min Rain = 0
KFAS 241915Z 21002G8KT 18/07 A2998 RMK A01 T01800074  RH  051%=      5-min Rain = 0
KFAS 241920Z 26004KT 18/07 A2998 RMK A01 T01820073  RH  050%=      5-min Rain = 0
KFAS 241925Z 22005KT 18/07 A2997 RMK A01 T01830074  RH  050%=      5-min Rain = 0
KFAS 241930Z 19007KT 18/07 A2997 RMK A01 T01840074  RH  050%=      5-min Rain = 0
KFAS 241935Z 26006KT 19/07 A2997 RMK A01 T01850074  RH  050%=      5-min Rain = 0
KFAS 241940Z 23008KT 18/07 A2997 RMK A01 T01810074  RH  051%=      5-min Rain = 0
KFAS 241945Z 20002KT 18/07 A2997 RMK A01 T01830070  RH  049%=      5-min Rain = 0
KFAS 241950Z 23004KT 18/07 A2997 RMK A01 T01820069  RH  049%=      5-min Rain = 0
KFAS 241955Z 23004KT 18/07 A2996 RMK A01 T01810071  RH  050%=      5-min Rain = 0
KFAS 242000Z 24004G9KT 18/07 A2996 RMK A01 T01830072  RH  050%=      5-min Rain = 0
KFAS 242005Z 24006KT 18/07 A2996 RMK A01 T01810072  RH  050%=      5-min Rain = 0
KFAS 242010Z 24006G11KT 18/08 A2995 RMK A01 T01830077  RH  051%=      5-min Rain = 0
KFAS 242015Z 25007KT 19/08 A2995 RMK A01 T01870078  RH  050%=      5-min Rain = 0
KFAS 242020Z 23004G9KT 19/07 A2995 RMK A01 T01880073  RH  048%=      5-min Rain = 0
KFAS 242025Z 23004KT 19/07 A2995 RMK A01 T01890071  RH  048%=      5-min Rain = 0
KFAS 242030Z 24005KT 19/07 A2995 RMK A01 T01900071  RH  047%=      5-min Rain = 0
KFAS 242035Z 25001KT 19/07 A2995 RMK A01 T01890070  RH  047%=      5-min Rain = 0
KFAS 242040Z 30007G12KT 20/07 A2994 RMK A01 T01950073  RH  046%=      5-min Rain = 0
KFAS 242045Z 29005KT 19/07 A2994 RMK A01 T01890073  RH  048%=      5-min Rain = 0
KFAS 242050Z 26004G10KT 19/08 A2994 RMK A01 T01920078  RH  049%=      5-min Rain = 0
KFAS 242055Z 24006G11KT 20/08 A2993 RMK A01 T01970081  RH  048%=      5-min Rain = 0
KFAS 242100Z 23008KT 20/08 A2993 RMK A01 T02000080  RH  047%=      5-min Rain = 0
KFAS 242105Z 23008KT 20/08 A2993 RMK A01 T01980077  RH  047%=      5-min Rain = 0
KFAS 242110Z 27007KT 19/08 A2993 RMK A01 T01920075  RH  048%=      5-min Rain = 0
KFAS 242115Z 24003KT 19/08 A2993 RMK A01 T01910075  RH  048%=      5-min Rain = 0
KFAS 242120Z 23006G17KT 20/08 A2992 RMK A01 T01970077  RH  047%=      5-min Rain = 0
KFAS 242125Z 33008KT 20/07 A2992 RMK A01 T02030071  RH  044%=      5-min Rain = 0
KFAS 242130Z 33005KT 20/07 A2992 RMK A01 T02010066  RH  043%=      5-min Rain = 0
KFAS 242135Z 03004KT 20/07 A2992 RMK A01 T01950065  RH  044%=      5-min Rain = 0
KFAS 242140Z 27005G11KT 20/07 A2992 RMK A01 T01980070  RH  044%=      5-min Rain = 0
KFAS 242145Z 28006KT 20/07 A2992 RMK A01 T02000068  RH  044%=      5-min Rain = 0
KFAS 242150Z 27003KT 20/07 A2992 RMK A01 T01970072  RH  045%=      5-min Rain = 0
KFAS 242155Z 20003KT 20/07 A2991 RMK A01 T02010074  RH  045%=      5-min Rain = 0
KFAS 242200Z 30004KT 20/07 A2991 RMK A01 T02030069  RH  043%=      5-min Rain = 0
KFAS 242205Z 29004KT 21/07 A2991 RMK A01 T02070067  RH  041%=      5-min Rain = 0
KFAS 242210Z 35005KT 20/06 A2991 RMK A01 T02030064  RH  041%=      5-min Rain = 0
KFAS 242215Z 30002KT 20/07 A2991 RMK A01 T01990066  RH  043%=      5-min Rain = 0
KFAS 242220Z 25006G14KT 20/07 A2991 RMK A01 T02040070  RH  043%=      5-min Rain = 0
KFAS 242225Z 27008KT 21/07 A2991 RMK A01 T02070069  RH  042%=      5-min Rain = 0
KFAS 242230Z 27004G11KT 21/07 A2991 RMK A01 T02060066  RH  041%=      5-min Rain = 0
KFAS 242235Z 32004G11KT 20/06 A2991 RMK A01 T02040063  RH  041%=      5-min Rain = 0
KFAS 242240Z 34003KT 20/07 A2991 RMK A01 T01990066  RH  043%=      5-min Rain = 0
KFAS 242245Z 05002KT 20/07 A299 RMK A01 T02010066  RH  043%=      5-min Rain = 0
KFAS 242250Z 33006KT 20/06 A2991 RMK A01 T02030064  RH  041%=      5-min Rain = 0
KFAS 242255Z 34004KT 20/06 A2991 RMK A01 T02040062  RH  041%=      5-min Rain = 0
KFAS 242300Z 35003KT 20/06 A2991 RMK A01 T02030063  RH  041%=      5-min Rain = 0
KFAS 242305Z 01005KT 21/07 A2991 RMK A01 T02060070  RH  042%=      5-min Rain = 0
KFAS 242310Z 00005KT 21/07 A2991 RMK A01 T02080067  RH  041%=      5-min Rain = 0
KFAS 242315Z 36002KT 21/07 A2991 RMK A01 T02050066  RH  041%=      5-min Rain = 0
KFAS 242320Z 33004KT 21/07 A2991 RMK A01 T02090066  RH  040%=      5-min Rain = 0
KFAS 242325Z 30002KT 21/06 A2991 RMK A01 T02080062  RH  040%=      5-min Rain = 0
KFAS 242330Z 02005KT 21/06 A2991 RMK A01 T02060059  RH  039%=      5-min Rain = 0
KFAS 242335Z 35006KT 21/06 A2991 RMK A01 T02060063  RH  040%=      5-min Rain = 0
KFAS 242340Z 34005KT 21/06 A2991 RMK A01 T02050059  RH  039%=      5-min Rain = 0
KFAS 242345Z 36004KT 21/06 A2991 RMK A01 T02050060  RH  040%=      5-min Rain = 0
KFAS 242350Z 32001KT 21/06 A2991 RMK A01 T02060060  RH  040%=      5-min Rain = 0
KFAS 242355Z 32001KT 21/06 A2991 RMK A01 T02130061  RH  038%=      5-min Rain = 0
KFAS 250000Z 36001KT 21/05 A299 RMK A01 T02120053  RH  036%=      5-min Rain = 0
KFAS 250005Z 08002KT 21/06 A299 RMK A01 T02080055  RH  038%=      5-min Rain = 0
KFAS 250010Z 03002KT 21/06 A299 RMK A01 T02060060  RH  039%=      5-min Rain = 0
KFAS 250015Z 05003KT 20/06 A299 RMK A01 T02040062  RH  041%=      5-min Rain = 0
KFAS 250020Z 07003KT 20/06 A299 RMK A01 T02020061  RH  041%=      5-min Rain = 0
KFAS 250025Z 07003KT 20/07 A299 RMK A01 T02000067  RH  043%=      5-min Rain = 0
KFAS 250030Z 07002KT 20/07 A299 RMK A01 T01990067  RH  043%=      5-min Rain = 0
KFAS 250035Z 07002KT 20/06 A299 RMK A01 T01990060  RH  041%=      5-min Rain = 0
KFAS 250040Z 05001KT 20/06 A2989 RMK A01 T01990062  RH  042%=      5-min Rain = 0
KFAS 250045Z 06001KT 20/06 A2989 RMK A01 T01990062  RH  042%=      5-min Rain = 0
KFAS 250050Z 10001KT 20/06 A299 RMK A01 T01990061  RH  042%=      5-min Rain = 0
KFAS 250055Z 11000KT 20/06 A299 RMK A01 T01980061  RH  042%=      5-min Rain = 0
KFAS 250100Z 05000KT 20/06 A299 RMK A01 T02000064  RH  042%=      5-min Rain = 0
KFAS 250105Z 00000KT 20/06 A299 RMK A01 T02020062  RH  041%=      5-min Rain = 0
KFAS 250110Z 23000KT 20/06 A299 RMK A01 T02020064  RH  041%=      5-min Rain = 0
KFAS 250115Z 17001KT 20/06 A299 RMK A01 T01970060  RH  042%=      5-min Rain = 0
KFAS 250120Z 16002KT 19/07 A299 RMK A01 T01910066  RH  045%=      5-min Rain = 0
KFAS 250125Z 16002KT 18/07 A299 RMK A01 T01820068  RH  048%=      5-min Rain = 0
KFAS 250130Z 16002KT 17/07 A299 RMK A01 T01740066  RH  050%=      5-min Rain = 0
KFAS 250135Z 17002KT 17/07 A299 RMK A01 T01690067  RH  052%=      5-min Rain = 0
KFAS 250140Z 18002KT 17/07 A299 RMK A01 T01690074  RH  055%=      5-min Rain = 0
KFAS 250145Z 16002KT 17/08 A299 RMK A01 T01670077  RH  057%=      5-min Rain = 0
KFAS 250150Z 16002KT 16/08 A2991 RMK A01 T01620080  RH  060%=      5-min Rain = 0
KFAS 250155Z 16003KT 16/08 A2991 RMK A01 T01600082  RH  062%=      5-min Rain = 0
KFAS 250200Z 17003KT 16/08 A2991 RMK A01 T01560078  RH  061%=      5-min Rain = 0
KFAS 250205Z 19003KT 15/08 A2991 RMK A01 T01510077  RH  063%=      5-min Rain = 0
KFAS 250210Z 18003KT 15/08 A2991 RMK A01 T01530078  RH  062%=      5-min Rain = 0
KFAS 250215Z 18003KT 15/08 A2991 RMK A01 T01510078  RH  063%=      5-min Rain = 0
KFAS 250220Z 19004KT 14/08 A2992 RMK A01 T01420075  RH  065%=      5-min Rain = 0
KFAS 250225Z 19004KT 14/07 A2992 RMK A01 T01370073  RH  067%=      5-min Rain = 0
KFAS 250230Z 21003KT 14/08 A2992 RMK A01 T01400076  RH  067%=      5-min Rain = 0
KFAS 250235Z 23003KT 14/08 A2992 RMK A01 T01380076  RH  068%=      5-min Rain = 0
KFAS 250240Z 21002KT 13/07 A2992 RMK A01 T01330074  RH  069%=      5-min Rain = 0
KFAS 250245Z 21003KT 13/08 A2993 RMK A01 T01320079  RH  072%=      5-min Rain = 0
KFAS 250250Z 20003KT 14/09 A2993 RMK A01 T01350086  RH  074%=      5-min Rain = 0
KFAS 250255Z 19001KT 14/09 A2993 RMK A01 T01380086  RH  073%=      5-min Rain = 0
KFAS 250300Z 19002KT 14/09 A2993 RMK A01 T01380087  RH  074%=      5-min Rain = 0
KFAS 250305Z 19003KT 14/09 A2993 RMK A01 T01360088  RH  075%=      5-min Rain = 0
KFAS 250310Z 20003KT 13/08 A2993 RMK A01 T01300081  RH  074%=      5-min Rain = 0
KFAS 250315Z 20003KT 13/08 A2993 RMK A01 T01260082  RH  077%=      5-min Rain = 0
KFAS 250320Z 20003KT 12/08 A2993 RMK A01 T01230080  RH  077%=      5-min Rain = 0
KFAS 250325Z 20002KT 12/08 A2993 RMK A01 T01200082  RH  080%=      5-min Rain = 0
KFAS 250330Z 20002KT 12/09 A2993 RMK A01 T01200086  RH  082%=      5-min Rain = 0
KFAS 250335Z 20003KT 12/08 A2994 RMK A01 T01190083  RH  081%=      5-min Rain = 0
KFAS 250340Z 20003KT 12/09 A2994 RMK A01 T01170085  RH  084%=      5-min Rain = 0
KFAS 250345Z 20003KT 12/09 A2994 RMK A01 T01160089  RH  086%=      5-min Rain = 0
KFAS 250350Z 19003KT 11/09 A2994 RMK A01 T01120087  RH  087%=      5-min Rain = 0
KFAS 250355Z 17003KT 11/09 A2994 RMK A01 T01130086  RH  086%=      5-min Rain = 0
KFAS 250400Z 17003KT 11/09 A2994 RMK A01 T01140086  RH  085%=      5-min Rain = 0
KFAS 250405Z 19004KT 11/09 A2994 RMK A01 T01130086  RH  086%=      5-min Rain = 0
KFAS 250410Z 21004KT 10/08 A2994 RMK A01 T01030076  RH  085%=      5-min Rain = 0
KFAS 250415Z 20003KT 10/08 A2994 RMK A01 T01000078  RH  089%=      5-min Rain = 0
KFAS 250420Z 20003KT 10/08 A2994 RMK A01 T00990078  RH  089%=      5-min Rain = 0
KFAS 250425Z 22004KT 10/08 A2994 RMK A01 T01010081  RH  090%=      5-min Rain = 0
KFAS 250430Z 25006KT 10/08 A2994 RMK A01 T01000080  RH  090%=      5-min Rain = 0
KFAS 250435Z 26005KT 10/08 A2994 RMK A01 T00980078  RH  090%=      5-min Rain = 0
KFAS 250440Z 26009KT 10/08 A2994 RMK A01 T00990078  RH  089%=      5-min Rain = 0
KFAS 250445Z 26007KT 10/08 A2994 RMK A01 T01000077  RH  088%=      5-min Rain = 0
KFAS 250450Z 26008KT 10/07 A2994 RMK A01 T00990074  RH  087%=      5-min Rain = 0
KFAS 250455Z 26007KT 10/07 A2994 RMK A01 T00970072  RH  087%=      5-min Rain = 0

Page generated in 0.01 seconds.